sensor_id;sensor_type;location;lat;lon;timestamp;P1;durP1;ratioP1;P2;durP2;ratioP2
23270;SDS011;11804;51.118;17.058;2022-11-21T00:01:17;98.30;;;44.73;;
23270;SDS011;11804;51.118;17.058;2022-11-21T00:03:48;100.17;;;45.53;;
23270;SDS011;11804;51.118;17.058;2022-11-21T00:06:16;95.43;;;44.73;;
23270;SDS011;11804;51.118;17.058;2022-11-21T00:08:44;99.67;;;44.30;;
23270;SDS011;11804;51.118;17.058;2022-11-21T00:11:12;97.53;;;45.33;;
23270;SDS011;11804;51.118;17.058;2022-11-21T00:13:40;99.37;;;45.63;;
23270;SDS011;11804;51.118;17.058;2022-11-21T00:16:12;104.97;;;48.73;;
23270;SDS011;11804;51.118;17.058;2022-11-21T00:18:41;106.80;;;49.47;;
23270;SDS011;11804;51.118;17.058;2022-11-21T00:21:10;106.43;;;49.40;;
23270;SDS011;11804;51.118;17.058;2022-11-21T00:23:40;100.87;;;46.27;;
23270;SDS011;11804;51.118;17.058;2022-11-21T00:26:09;99.37;;;45.03;;
23270;SDS011;11804;51.118;17.058;2022-11-21T00:28:38;103.30;;;45.50;;
23270;SDS011;11804;51.118;17.058;2022-11-21T00:31:06;95.50;;;44.73;;
23270;SDS011;11804;51.118;17.058;2022-11-21T00:33:34;104.40;;;44.47;;
23270;SDS011;11804;51.118;17.058;2022-11-21T00:36:07;97.10;;;42.03;;
23270;SDS011;11804;51.118;17.058;2022-11-21T00:38:35;91.50;;;42.10;;
23270;SDS011;11804;51.118;17.058;2022-11-21T00:41:03;90.80;;;40.43;;
23270;SDS011;11804;51.118;17.058;2022-11-21T00:43:31;87.33;;;40.17;;
23270;SDS011;11804;51.118;17.058;2022-11-21T00:45:59;88.97;;;39.77;;
23270;SDS011;11804;51.118;17.058;2022-11-21T00:48:27;88.13;;;39.37;;
23270;SDS011;11804;51.118;17.058;2022-11-21T00:50:56;79.20;;;37.47;;
23270;SDS011;11804;51.118;17.058;2022-11-21T00:53:25;82.63;;;38.93;;
23270;SDS011;11804;51.118;17.058;2022-11-21T00:55:52;77.33;;;35.87;;
23270;SDS011;11804;51.118;17.058;2022-11-21T00:58:20;76.87;;;35.23;;
23270;SDS011;11804;51.118;17.058;2022-11-21T01:00:48;81.97;;;35.97;;
23270;SDS011;11804;51.118;17.058;2022-11-21T01:03:15;79.37;;;35.07;;
23270;SDS011;11804;51.118;17.058;2022-11-21T01:05:44;79.00;;;34.90;;
23270;SDS011;11804;51.118;17.058;2022-11-21T01:08:12;76.70;;;36.10;;
23270;SDS011;11804;51.118;17.058;2022-11-21T01:10:40;74.57;;;34.87;;
23270;SDS011;11804;51.118;17.058;2022-11-21T01:13:09;74.50;;;34.40;;
23270;SDS011;11804;51.118;17.058;2022-11-21T01:15:36;82.57;;;36.20;;
23270;SDS011;11804;51.118;17.058;2022-11-21T01:18:04;80.50;;;36.70;;
23270;SDS011;11804;51.118;17.058;2022-11-21T01:20:31;76.87;;;35.80;;
23270;SDS011;11804;51.118;17.058;2022-11-21T01:22:59;80.40;;;35.73;;
23270;SDS011;11804;51.118;17.058;2022-11-21T01:25:27;74.27;;;34.07;;
23270;SDS011;11804;51.118;17.058;2022-11-21T01:27:54;73.30;;;34.37;;
23270;SDS011;11804;51.118;17.058;2022-11-21T01:30:22;75.63;;;34.53;;
23270;SDS011;11804;51.118;17.058;2022-11-21T01:32:49;73.83;;;32.90;;
23270;SDS011;11804;51.118;17.058;2022-11-21T01:35:17;72.53;;;34.20;;
23270;SDS011;11804;51.118;17.058;2022-11-21T01:37:48;76.20;;;35.77;;
23270;SDS011;11804;51.118;17.058;2022-11-21T01:40:15;73.63;;;34.53;;
23270;SDS011;11804;51.118;17.058;2022-11-21T01:42:52;72.67;;;34.53;;
23270;SDS011;11804;51.118;17.058;2022-11-21T01:48:27;73.50;;;34.00;;
23270;SDS011;11804;51.118;17.058;2022-11-21T01:50:53;66.17;;;32.73;;
23270;SDS011;11804;51.118;17.058;2022-11-21T01:53:22;65.37;;;31.57;;
23270;SDS011;11804;51.118;17.058;2022-11-21T01:55:50;68.27;;;31.80;;
23270;SDS011;11804;51.118;17.058;2022-11-21T01:58:19;70.93;;;32.27;;
23270;SDS011;11804;51.118;17.058;2022-11-21T02:00:48;69.53;;;33.70;;
23270;SDS011;11804;51.118;17.058;2022-11-21T02:03:17;74.23;;;32.53;;
23270;SDS011;11804;51.118;17.058;2022-11-21T02:05:47;67.87;;;32.33;;
23270;SDS011;11804;51.118;17.058;2022-11-21T02:08:17;71.57;;;32.63;;
23270;SDS011;11804;51.118;17.058;2022-11-21T02:11:01;67.17;;;32.37;;
23270;SDS011;11804;51.118;17.058;2022-11-21T02:13:33;67.53;;;32.87;;
23270;SDS011;11804;51.118;17.058;2022-11-21T02:16:01;68.67;;;32.87;;
23270;SDS011;11804;51.118;17.058;2022-11-21T02:18:29;64.97;;;32.33;;
23270;SDS011;11804;51.118;17.058;2022-11-21T02:23:47;70.10;;;33.47;;
23270;SDS011;11804;51.118;17.058;2022-11-21T02:26:17;67.80;;;32.53;;
23270;SDS011;11804;51.118;17.058;2022-11-21T02:28:45;67.10;;;32.70;;
23270;SDS011;11804;51.118;17.058;2022-11-21T02:31:14;66.63;;;31.53;;
23270;SDS011;11804;51.118;17.058;2022-11-21T02:33:42;70.13;;;32.80;;
23270;SDS011;11804;51.118;17.058;2022-11-21T02:38:56;65.40;;;31.77;;
23270;SDS011;11804;51.118;17.058;2022-11-21T02:41:24;63.57;;;30.50;;
23270;SDS011;11804;51.118;17.058;2022-11-21T02:43:58;65.80;;;30.20;;
23270;SDS011;11804;51.118;17.058;2022-11-21T02:46:27;68.00;;;33.43;;
23270;SDS011;11804;51.118;17.058;2022-11-21T02:48:55;64.73;;;31.97;;
23270;SDS011;11804;51.118;17.058;2022-11-21T02:51:24;65.77;;;32.57;;
23270;SDS011;11804;51.118;17.058;2022-11-21T02:53:51;65.13;;;31.10;;
23270;SDS011;11804;51.118;17.058;2022-11-21T02:56:19;62.77;;;30.47;;
23270;SDS011;11804;51.118;17.058;2022-11-21T02:58:46;65.17;;;31.80;;
23270;SDS011;11804;51.118;17.058;2022-11-21T03:01:14;68.03;;;30.87;;
23270;SDS011;11804;51.118;17.058;2022-11-21T03:03:41;67.93;;;32.53;;
23270;SDS011;11804;51.118;17.058;2022-11-21T03:06:09;61.63;;;31.27;;
23270;SDS011;11804;51.118;17.058;2022-11-21T03:08:36;65.97;;;32.30;;
23270;SDS011;11804;51.118;17.058;2022-11-21T03:11:04;65.50;;;32.33;;
23270;SDS011;11804;51.118;17.058;2022-11-21T03:13:32;61.87;;;30.27;;
23270;SDS011;11804;51.118;17.058;2022-11-21T03:15:59;70.30;;;29.73;;
23270;SDS011;11804;51.118;17.058;2022-11-21T03:18:27;64.87;;;32.33;;
23270;SDS011;11804;51.118;17.058;2022-11-21T03:20:56;60.53;;;30.43;;
23270;SDS011;11804;51.118;17.058;2022-11-21T03:23:23;61.60;;;30.60;;
23270;SDS011;11804;51.118;17.058;2022-11-21T03:25:51;64.60;;;32.23;;
23270;SDS011;11804;51.118;17.058;2022-11-21T03:28:18;63.37;;;32.60;;
23270;SDS011;11804;51.118;17.058;2022-11-21T03:30:46;63.43;;;32.83;;
23270;SDS011;11804;51.118;17.058;2022-11-21T03:33:13;62.67;;;30.63;;
23270;SDS011;11804;51.118;17.058;2022-11-21T03:35:41;60.00;;;30.70;;
23270;SDS011;11804;51.118;17.058;2022-11-21T03:38:09;65.23;;;31.50;;
23270;SDS011;11804;51.118;17.058;2022-11-21T03:40:36;62.33;;;31.60;;
23270;SDS011;11804;51.118;17.058;2022-11-21T03:43:04;59.27;;;30.63;;
23270;SDS011;11804;51.118;17.058;2022-11-21T03:45:32;57.40;;;28.70;;
23270;SDS011;11804;51.118;17.058;2022-11-21T03:48:00;62.90;;;30.53;;
23270;SDS011;11804;51.118;17.058;2022-11-21T03:50:27;66.20;;;31.93;;
23270;SDS011;11804;51.118;17.058;2022-11-21T03:52:57;59.93;;;28.83;;
23270;SDS011;11804;51.118;17.058;2022-11-21T03:55:24;60.27;;;28.50;;
23270;SDS011;11804;51.118;17.058;2022-11-21T03:57:52;62.07;;;29.27;;
23270;SDS011;11804;51.118;17.058;2022-11-21T04:00:19;60.60;;;29.63;;
23270;SDS011;11804;51.118;17.058;2022-11-21T04:02:47;58.00;;;29.00;;
23270;SDS011;11804;51.118;17.058;2022-11-21T04:05:17;58.70;;;28.37;;
23270;SDS011;11804;51.118;17.058;2022-11-21T04:07:45;59.27;;;29.10;;
23270;SDS011;11804;51.118;17.058;2022-11-21T04:10:12;56.77;;;28.47;;
23270;SDS011;11804;51.118;17.058;2022-11-21T04:12:40;63.33;;;30.10;;
23270;SDS011;11804;51.118;17.058;2022-11-21T04:15:08;54.13;;;29.47;;
23270;SDS011;11804;51.118;17.058;2022-11-21T04:17:37;56.00;;;28.53;;
23270;SDS011;11804;51.118;17.058;2022-11-21T04:20:04;61.70;;;30.53;;
23270;SDS011;11804;51.118;17.058;2022-11-21T04:22:33;65.87;;;33.07;;
23270;SDS011;11804;51.118;17.058;2022-11-21T04:25:01;59.43;;;29.90;;
23270;SDS011;11804;51.118;17.058;2022-11-21T04:27:28;62.23;;;32.47;;
23270;SDS011;11804;51.118;17.058;2022-11-21T04:29:57;62.77;;;31.33;;
23270;SDS011;11804;51.118;17.058;2022-11-21T04:32:25;59.10;;;29.63;;
23270;SDS011;11804;51.118;17.058;2022-11-21T04:34:53;64.93;;;33.03;;
23270;SDS011;11804;51.118;17.058;2022-11-21T04:37:20;60.00;;;33.20;;
23270;SDS011;11804;51.118;17.058;2022-11-21T04:39:48;57.30;;;30.03;;
23270;SDS011;11804;51.118;17.058;2022-11-21T04:42:15;61.83;;;30.83;;
23270;SDS011;11804;51.118;17.058;2022-11-21T04:44:45;64.60;;;31.83;;
23270;SDS011;11804;51.118;17.058;2022-11-21T04:47:12;60.13;;;28.93;;
23270;SDS011;11804;51.118;17.058;2022-11-21T04:49:42;58.63;;;30.40;;
23270;SDS011;11804;51.118;17.058;2022-11-21T04:52:10;62.40;;;32.27;;
23270;SDS011;11804;51.118;17.058;2022-11-21T04:54:37;59.40;;;30.03;;
23270;SDS011;11804;51.118;17.058;2022-11-21T04:57:05;61.80;;;29.27;;
23270;SDS011;11804;51.118;17.058;2022-11-21T04:59:32;57.87;;;31.43;;
23270;SDS011;11804;51.118;17.058;2022-11-21T05:02:01;54.43;;;27.73;;
23270;SDS011;11804;51.118;17.058;2022-11-21T05:04:29;56.63;;;29.17;;
23270;SDS011;11804;51.118;17.058;2022-11-21T05:06:57;54.50;;;28.23;;
23270;SDS011;11804;51.118;17.058;2022-11-21T05:09:24;58.10;;;28.97;;
23270;SDS011;11804;51.118;17.058;2022-11-21T05:11:52;56.20;;;27.67;;
23270;SDS011;11804;51.118;17.058;2022-11-21T05:14:37;57.73;;;29.23;;
23270;SDS011;11804;51.118;17.058;2022-11-21T05:17:05;58.63;;;29.93;;
23270;SDS011;11804;51.118;17.058;2022-11-21T05:19:32;56.10;;;28.87;;
23270;SDS011;11804;51.118;17.058;2022-11-21T05:22:01;58.83;;;30.07;;
23270;SDS011;11804;51.118;17.058;2022-11-21T05:24:29;54.77;;;30.17;;
23270;SDS011;11804;51.118;17.058;2022-11-21T05:26:56;57.87;;;28.90;;
23270;SDS011;11804;51.118;17.058;2022-11-21T05:29:24;57.10;;;27.80;;
23270;SDS011;11804;51.118;17.058;2022-11-21T05:31:51;57.73;;;29.33;;
23270;SDS011;11804;51.118;17.058;2022-11-21T05:34:19;58.07;;;29.30;;
23270;SDS011;11804;51.118;17.058;2022-11-21T05:36:48;51.27;;;25.93;;
23270;SDS011;11804;51.118;17.058;2022-11-21T05:39:15;54.50;;;27.97;;
23270;SDS011;11804;51.118;17.058;2022-11-21T05:41:43;52.23;;;26.40;;
23270;SDS011;11804;51.118;17.058;2022-11-21T05:44:12;51.37;;;26.43;;
23270;SDS011;11804;51.118;17.058;2022-11-21T05:46:39;50.20;;;26.80;;
23270;SDS011;11804;51.118;17.058;2022-11-21T05:49:07;55.30;;;25.37;;
23270;SDS011;11804;51.118;17.058;2022-11-21T05:51:34;53.83;;;26.53;;
23270;SDS011;11804;51.118;17.058;2022-11-21T05:54:02;53.10;;;27.57;;
23270;SDS011;11804;51.118;17.058;2022-11-21T05:56:30;54.43;;;29.23;;
23270;SDS011;11804;51.118;17.058;2022-11-21T05:58:58;47.47;;;24.80;;
23270;SDS011;11804;51.118;17.058;2022-11-21T06:01:25;53.47;;;27.83;;
23270;SDS011;11804;51.118;17.058;2022-11-21T06:03:55;48.13;;;26.50;;
23270;SDS011;11804;51.118;17.058;2022-11-21T06:06:23;51.83;;;27.50;;
23270;SDS011;11804;51.118;17.058;2022-11-21T06:08:50;60.07;;;28.97;;
23270;SDS011;11804;51.118;17.058;2022-11-21T06:11:18;52.63;;;27.37;;
23270;SDS011;11804;51.118;17.058;2022-11-21T06:13:45;56.83;;;29.00;;
23270;SDS011;11804;51.118;17.058;2022-11-21T06:16:14;56.17;;;27.70;;
23270;SDS011;11804;51.118;17.058;2022-11-21T06:18:45;59.23;;;30.40;;
23270;SDS011;11804;51.118;17.058;2022-11-21T06:21:15;55.33;;;27.17;;
23270;SDS011;11804;51.118;17.058;2022-11-21T06:23:44;57.10;;;28.50;;
23270;SDS011;11804;51.118;17.058;2022-11-21T06:26:15;60.07;;;29.47;;
23270;SDS011;11804;51.118;17.058;2022-11-21T06:28:43;53.23;;;27.73;;
23270;SDS011;11804;51.118;17.058;2022-11-21T06:31:14;52.83;;;27.90;;
23270;SDS011;11804;51.118;17.058;2022-11-21T06:33:43;54.37;;;29.43;;
23270;SDS011;11804;51.118;17.058;2022-11-21T06:36:14;59.00;;;30.67;;
23270;SDS011;11804;51.118;17.058;2022-11-21T06:38:43;54.47;;;30.27;;
23270;SDS011;11804;51.118;17.058;2022-11-21T06:41:12;58.73;;;31.30;;
23270;SDS011;11804;51.118;17.058;2022-11-21T06:43:42;57.37;;;28.33;;
23270;SDS011;11804;51.118;17.058;2022-11-21T06:46:10;57.70;;;29.07;;
23270;SDS011;11804;51.118;17.058;2022-11-21T06:48:39;58.13;;;30.23;;
23270;SDS011;11804;51.118;17.058;2022-11-21T06:51:10;56.33;;;27.90;;
23270;SDS011;11804;51.118;17.058;2022-11-21T06:53:40;56.70;;;29.63;;
23270;SDS011;11804;51.118;17.058;2022-11-21T06:56:08;55.67;;;28.27;;
23270;SDS011;11804;51.118;17.058;2022-11-21T06:58:36;57.60;;;29.37;;
23270;SDS011;11804;51.118;17.058;2022-11-21T07:01:06;56.53;;;28.70;;
23270;SDS011;11804;51.118;17.058;2022-11-21T07:03:35;54.13;;;28.30;;
23270;SDS011;11804;51.118;17.058;2022-11-21T07:06:02;56.57;;;28.57;;
23270;SDS011;11804;51.118;17.058;2022-11-21T07:08:31;58.50;;;29.37;;
23270;SDS011;11804;51.118;17.058;2022-11-21T07:11:12;52.57;;;28.07;;
23270;SDS011;11804;51.118;17.058;2022-11-21T07:13:34;53.83;;;26.77;;
23270;SDS011;11804;51.118;17.058;2022-11-21T07:16:08;57.67;;;28.07;;
23270;SDS011;11804;51.118;17.058;2022-11-21T07:18:34;56.67;;;28.13;;
23270;SDS011;11804;51.118;17.058;2022-11-21T07:21:03;54.47;;;29.17;;
23270;SDS011;11804;51.118;17.058;2022-11-21T07:23:32;51.93;;;29.30;;
23270;SDS011;11804;51.118;17.058;2022-11-21T07:26:04;52.20;;;28.27;;
23270;SDS011;11804;51.118;17.058;2022-11-21T07:28:33;53.00;;;27.77;;
23270;SDS011;11804;51.118;17.058;2022-11-21T07:31:02;54.80;;;27.43;;
23270;SDS011;11804;51.118;17.058;2022-11-21T07:33:30;54.83;;;28.30;;
23270;SDS011;11804;51.118;17.058;2022-11-21T07:35:57;52.23;;;26.60;;
23270;SDS011;11804;51.118;17.058;2022-11-21T07:38:25;49.90;;;26.10;;
23270;SDS011;11804;51.118;17.058;2022-11-21T07:40:55;56.00;;;28.37;;
23270;SDS011;11804;51.118;17.058;2022-11-21T07:43:22;63.40;;;27.53;;
23270;SDS011;11804;51.118;17.058;2022-11-21T07:45:49;59.40;;;28.30;;
23270;SDS011;11804;51.118;17.058;2022-11-21T07:48:17;54.53;;;26.50;;
23270;SDS011;11804;51.118;17.058;2022-11-21T07:50:44;49.60;;;26.23;;
23270;SDS011;11804;51.118;17.058;2022-11-21T07:53:12;52.13;;;25.13;;
23270;SDS011;11804;51.118;17.058;2022-11-21T07:55:39;47.33;;;25.33;;
23270;SDS011;11804;51.118;17.058;2022-11-21T07:58:08;46.50;;;23.50;;
23270;SDS011;11804;51.118;17.058;2022-11-21T08:00:38;41.60;;;22.83;;
23270;SDS011;11804;51.118;17.058;2022-11-21T08:03:09;56.80;;;28.53;;
23270;SDS011;11804;51.118;17.058;2022-11-21T08:05:39;46.83;;;24.43;;
23270;SDS011;11804;51.118;17.058;2022-11-21T08:08:10;45.30;;;22.77;;
23270;SDS011;11804;51.118;17.058;2022-11-21T08:10:44;45.43;;;23.57;;
23270;SDS011;11804;51.118;17.058;2022-11-21T08:13:08;46.77;;;24.10;;
23270;SDS011;11804;51.118;17.058;2022-11-21T08:15:37;42.40;;;23.93;;
23270;SDS011;11804;51.118;17.058;2022-11-21T08:18:08;47.63;;;24.03;;
23270;SDS011;11804;51.118;17.058;2022-11-21T08:20:37;43.50;;;22.80;;
23270;SDS011;11804;51.118;17.058;2022-11-21T08:23:07;40.53;;;21.83;;
23270;SDS011;11804;51.118;17.058;2022-11-21T08:25:36;47.07;;;22.87;;
23270;SDS011;11804;51.118;17.058;2022-11-21T08:28:04;41.13;;;22.27;;
23270;SDS011;11804;51.118;17.058;2022-11-21T08:30:33;43.80;;;22.27;;
23270;SDS011;11804;51.118;17.058;2022-11-21T08:33:02;43.17;;;22.80;;
23270;SDS011;11804;51.118;17.058;2022-11-21T08:35:30;42.17;;;22.27;;
23270;SDS011;11804;51.118;17.058;2022-11-21T08:38:00;41.93;;;21.60;;
23270;SDS011;11804;51.118;17.058;2022-11-21T08:40:28;43.50;;;22.00;;
23270;SDS011;11804;51.118;17.058;2022-11-21T08:43:04;42.13;;;20.97;;
23270;SDS011;11804;51.118;17.058;2022-11-21T08:45:34;41.43;;;22.13;;
23270;SDS011;11804;51.118;17.058;2022-11-21T08:48:03;41.40;;;21.67;;
23270;SDS011;11804;51.118;17.058;2022-11-21T08:50:32;41.17;;;22.40;;
23270;SDS011;11804;51.118;17.058;2022-11-21T08:53:00;35.23;;;20.30;;
23270;SDS011;11804;51.118;17.058;2022-11-21T08:55:28;39.13;;;19.63;;
23270;SDS011;11804;51.118;17.058;2022-11-21T08:57:56;45.73;;;21.13;;
23270;SDS011;11804;51.118;17.058;2022-11-21T09:00:25;35.20;;;19.60;;
23270;SDS011;11804;51.118;17.058;2022-11-21T09:02:52;37.50;;;19.37;;
23270;SDS011;11804;51.118;17.058;2022-11-21T09:05:20;38.43;;;21.03;;
23270;SDS011;11804;51.118;17.058;2022-11-21T09:07:54;34.40;;;18.80;;
23270;SDS011;11804;51.118;17.058;2022-11-21T09:10:23;38.10;;;19.37;;
23270;SDS011;11804;51.118;17.058;2022-11-21T09:12:52;31.80;;;18.07;;
23270;SDS011;11804;51.118;17.058;2022-11-21T09:15:19;32.53;;;18.07;;
23270;SDS011;11804;51.118;17.058;2022-11-21T09:18:05;33.70;;;18.33;;
23270;SDS011;11804;51.118;17.058;2022-11-21T09:20:39;30.63;;;17.57;;
23270;SDS011;11804;51.118;17.058;2022-11-21T09:23:09;29.73;;;16.73;;
23270;SDS011;11804;51.118;17.058;2022-11-21T09:25:38;32.30;;;17.20;;
23270;SDS011;11804;51.118;17.058;2022-11-21T09:28:07;27.80;;;16.60;;
23270;SDS011;11804;51.118;17.058;2022-11-21T09:30:36;33.20;;;17.40;;
23270;SDS011;11804;51.118;17.058;2022-11-21T09:33:06;35.03;;;17.17;;
23270;SDS011;11804;51.118;17.058;2022-11-21T09:35:35;34.67;;;17.97;;
23270;SDS011;11804;51.118;17.058;2022-11-21T09:38:03;32.10;;;18.67;;
23270;SDS011;11804;51.118;17.058;2022-11-21T09:40:32;39.63;;;20.27;;
23270;SDS011;11804;51.118;17.058;2022-11-21T09:46:07;36.37;;;19.17;;
23270;SDS011;11804;51.118;17.058;2022-11-21T09:48:47;32.37;;;18.70;;
23270;SDS011;11804;51.118;17.058;2022-11-21T09:51:11;40.80;;;20.93;;
23270;SDS011;11804;51.118;17.058;2022-11-21T09:56:26;42.07;;;19.17;;
23270;SDS011;11804;51.118;17.058;2022-11-21T10:01:30;27.67;;;15.47;;
23270;SDS011;11804;51.118;17.058;2022-11-21T10:03:58;27.37;;;15.10;;
23270;SDS011;11804;51.118;17.058;2022-11-21T10:06:31;24.67;;;13.57;;
23270;SDS011;11804;51.118;17.058;2022-11-21T10:26:14;27.20;;;15.87;;
23270;SDS011;11804;51.118;17.058;2022-11-21T10:28:55;28.93;;;15.93;;
23270;SDS011;11804;51.118;17.058;2022-11-21T10:31:27;27.43;;;15.80;;
23270;SDS011;11804;51.118;17.058;2022-11-21T10:33:56;30.90;;;18.00;;
23270;SDS011;11804;51.118;17.058;2022-11-21T10:36:28;32.03;;;18.23;;
23270;SDS011;11804;51.118;17.058;2022-11-21T10:42:03;26.67;;;16.23;;
23270;SDS011;11804;51.118;17.058;2022-11-21T10:44:37;26.80;;;15.80;;
23270;SDS011;11804;51.118;17.058;2022-11-21T10:47:23;30.67;;;16.27;;
23270;SDS011;11804;51.118;17.058;2022-11-21T10:52:41;34.13;;;17.23;;
23270;SDS011;11804;51.118;17.058;2022-11-21T10:55:18;30.27;;;17.23;;
23270;SDS011;11804;51.118;17.058;2022-11-21T10:57:47;31.00;;;16.50;;
23270;SDS011;11804;51.118;17.058;2022-11-21T11:00:17;29.70;;;17.07;;
23270;SDS011;11804;51.118;17.058;2022-11-21T11:05:28;24.03;;;14.33;;
23270;SDS011;11804;51.118;17.058;2022-11-21T11:08:12;21.77;;;13.33;;
23270;SDS011;11804;51.118;17.058;2022-11-21T11:10:40;24.10;;;14.67;;
23270;SDS011;11804;51.118;17.058;2022-11-21T11:18:29;39.70;;;25.17;;
23270;SDS011;11804;51.118;17.058;2022-11-21T11:23:43;20.70;;;13.00;;
23270;SDS011;11804;51.118;17.058;2022-11-21T11:28:49;20.27;;;13.20;;
23270;SDS011;11804;51.118;17.058;2022-11-21T11:31:17;23.63;;;13.37;;
23270;SDS011;11804;51.118;17.058;2022-11-21T11:38:57;18.07;;;12.17;;
23270;SDS011;11804;51.118;17.058;2022-11-21T11:44:45;26.07;;;12.77;;
23270;SDS011;11804;51.118;17.058;2022-11-21T11:47:35;19.50;;;13.33;;
23270;SDS011;11804;51.118;17.058;2022-11-21T11:50:10;23.03;;;14.60;;
23270;SDS011;11804;51.118;17.058;2022-11-21T11:52:42;23.63;;;14.10;;
23270;SDS011;11804;51.118;17.058;2022-11-21T11:55:43;21.00;;;13.80;;
23270;SDS011;11804;51.118;17.058;2022-11-21T11:58:24;22.60;;;16.50;;
23270;SDS011;11804;51.118;17.058;2022-11-21T12:01:10;33.57;;;18.50;;
23270;SDS011;11804;51.118;17.058;2022-11-21T12:03:48;33.20;;;20.77;;
23270;SDS011;11804;51.118;17.058;2022-11-21T12:09:14;29.53;;;18.37;;
23270;SDS011;11804;51.118;17.058;2022-11-21T12:17:39;14.00;;;10.30;;
23270;SDS011;11804;51.118;17.058;2022-11-21T12:20:12;15.27;;;9.60;;
23270;SDS011;11804;51.118;17.058;2022-11-21T12:22:41;16.07;;;9.93;;
23270;SDS011;11804;51.118;17.058;2022-11-21T12:25:11;15.27;;;9.60;;
23270;SDS011;11804;51.118;17.058;2022-11-21T12:27:40;16.63;;;11.00;;
23270;SDS011;11804;51.118;17.058;2022-11-21T12:40:50;18.67;;;12.87;;
23270;SDS011;11804;51.118;17.058;2022-11-21T12:46:09;28.60;;;15.60;;
23270;SDS011;11804;51.118;17.058;2022-11-21T12:57:47;30.70;;;17.83;;
23270;SDS011;11804;51.118;17.058;2022-11-21T13:00:13;32.30;;;17.77;;
23270;SDS011;11804;51.118;17.058;2022-11-21T13:03:00;31.23;;;18.70;;
23270;SDS011;11804;51.118;17.058;2022-11-21T13:05:39;30.63;;;18.60;;
23270;SDS011;11804;51.118;17.058;2022-11-21T13:08:10;31.83;;;18.10;;
23270;SDS011;11804;51.118;17.058;2022-11-21T13:10:55;29.63;;;17.63;;
23270;SDS011;11804;51.118;17.058;2022-11-21T13:13:46;34.83;;;19.33;;
23270;SDS011;11804;51.118;17.058;2022-11-21T13:16:22;32.83;;;20.07;;
23270;SDS011;11804;51.118;17.058;2022-11-21T13:19:49;32.67;;;19.83;;
23270;SDS011;11804;51.118;17.058;2022-11-21T13:21:50;31.13;;;19.23;;
23270;SDS011;11804;51.118;17.058;2022-11-21T13:27:28;33.63;;;20.37;;
23270;SDS011;11804;51.118;17.058;2022-11-21T13:45:49;21.23;;;14.13;;
23270;SDS011;11804;51.118;17.058;2022-11-21T13:54:05;24.17;;;16.03;;
23270;SDS011;11804;51.118;17.058;2022-11-21T14:08:25;26.33;;;16.40;;
23270;SDS011;11804;51.118;17.058;2022-11-21T14:10:52;25.17;;;16.43;;
23270;SDS011;11804;51.118;17.058;2022-11-21T14:13:28;27.50;;;17.27;;
23270;SDS011;11804;51.118;17.058;2022-11-21T14:16:07;28.53;;;18.03;;
23270;SDS011;11804;51.118;17.058;2022-11-21T14:18:52;26.97;;;18.23;;
23270;SDS011;11804;51.118;17.058;2022-11-21T14:21:25;24.83;;;15.77;;
23270;SDS011;11804;51.118;17.058;2022-11-21T14:24:02;23.63;;;15.37;;
23270;SDS011;11804;51.118;17.058;2022-11-21T14:26:33;24.47;;;16.10;;
23270;SDS011;11804;51.118;17.058;2022-11-21T14:31:55;25.77;;;16.97;;
23270;SDS011;11804;51.118;17.058;2022-11-21T14:34:28;30.43;;;19.60;;
23270;SDS011;11804;51.118;17.058;2022-11-21T14:36:53;30.60;;;17.80;;
23270;SDS011;11804;51.118;17.058;2022-11-21T14:39:25;32.20;;;19.40;;
23270;SDS011;11804;51.118;17.058;2022-11-21T14:41:54;30.20;;;18.33;;
23270;SDS011;11804;51.118;17.058;2022-11-21T14:44:24;30.87;;;18.70;;
23270;SDS011;11804;51.118;17.058;2022-11-21T14:47:04;34.00;;;19.23;;
23270;SDS011;11804;51.118;17.058;2022-11-21T14:49:48;33.93;;;19.80;;
23270;SDS011;11804;51.118;17.058;2022-11-21T14:52:26;33.63;;;19.07;;
23270;SDS011;11804;51.118;17.058;2022-11-21T14:54:52;34.27;;;21.37;;
23270;SDS011;11804;51.118;17.058;2022-11-21T14:57:31;36.20;;;19.77;;
23270;SDS011;11804;51.118;17.058;2022-11-21T15:00:00;39.80;;;21.50;;
23270;SDS011;11804;51.118;17.058;2022-11-21T15:02:30;38.47;;;23.30;;
23270;SDS011;11804;51.118;17.058;2022-11-21T15:05:03;42.73;;;25.77;;
23270;SDS011;11804;51.118;17.058;2022-11-21T15:07:38;41.73;;;25.50;;
23270;SDS011;11804;51.118;17.058;2022-11-21T15:10:16;41.07;;;23.27;;
23270;SDS011;11804;51.118;17.058;2022-11-21T15:15:27;65.03;;;32.50;;
23270;SDS011;11804;51.118;17.058;2022-11-21T15:18:14;48.90;;;25.57;;
23270;SDS011;11804;51.118;17.058;2022-11-21T15:20:46;46.30;;;25.40;;
23270;SDS011;11804;51.118;17.058;2022-11-21T15:23:24;42.30;;;23.53;;
23270;SDS011;11804;51.118;17.058;2022-11-21T15:25:54;47.90;;;24.80;;
23270;SDS011;11804;51.118;17.058;2022-11-21T15:28:25;39.20;;;21.43;;
23270;SDS011;11804;51.118;17.058;2022-11-21T15:33:55;36.07;;;20.97;;
23270;SDS011;11804;51.118;17.058;2022-11-21T15:36:24;36.03;;;20.80;;
23270;SDS011;11804;51.118;17.058;2022-11-21T15:38:56;38.03;;;21.30;;
23270;SDS011;11804;51.118;17.058;2022-11-21T15:41:29;37.63;;;21.43;;
23270;SDS011;11804;51.118;17.058;2022-11-21T15:46:33;38.47;;;21.40;;
23270;SDS011;11804;51.118;17.058;2022-11-21T15:49:10;36.47;;;20.50;;
23270;SDS011;11804;51.118;17.058;2022-11-21T15:51:40;37.27;;;20.47;;
23270;SDS011;11804;51.118;17.058;2022-11-21T15:54:10;39.50;;;21.13;;
23270;SDS011;11804;51.118;17.058;2022-11-21T15:56:39;38.93;;;22.23;;
23270;SDS011;11804;51.118;17.058;2022-11-21T15:59:07;38.67;;;20.93;;
23270;SDS011;11804;51.118;17.058;2022-11-21T16:01:35;37.67;;;21.40;;
23270;SDS011;11804;51.118;17.058;2022-11-21T16:04:04;33.20;;;19.83;;
23270;SDS011;11804;51.118;17.058;2022-11-21T16:06:33;32.63;;;18.87;;
23270;SDS011;11804;51.118;17.058;2022-11-21T16:09:02;30.43;;;17.30;;
23270;SDS011;11804;51.118;17.058;2022-11-21T16:11:34;34.50;;;18.73;;
23270;SDS011;11804;51.118;17.058;2022-11-21T16:14:04;29.80;;;17.13;;
23270;SDS011;11804;51.118;17.058;2022-11-21T16:16:35;26.57;;;15.73;;
23270;SDS011;11804;51.118;17.058;2022-11-21T16:19:05;26.77;;;15.60;;
23270;SDS011;11804;51.118;17.058;2022-11-21T16:21:35;29.17;;;15.97;;
23270;SDS011;11804;51.118;17.058;2022-11-21T16:24:03;27.00;;;15.63;;
23270;SDS011;11804;51.118;17.058;2022-11-21T16:26:31;28.43;;;16.43;;
23270;SDS011;11804;51.118;17.058;2022-11-21T16:28:59;27.13;;;15.33;;
23270;SDS011;11804;51.118;17.058;2022-11-21T16:31:29;28.10;;;16.30;;
23270;SDS011;11804;51.118;17.058;2022-11-21T16:33:57;28.63;;;16.63;;
23270;SDS011;11804;51.118;17.058;2022-11-21T16:36:25;27.87;;;16.20;;
23270;SDS011;11804;51.118;17.058;2022-11-21T16:38:54;34.73;;;16.37;;
23270;SDS011;11804;51.118;17.058;2022-11-21T16:41:23;34.97;;;16.57;;
23270;SDS011;11804;51.118;17.058;2022-11-21T16:43:52;28.87;;;18.13;;
23270;SDS011;11804;51.118;17.058;2022-11-21T16:46:21;29.20;;;16.33;;